Time;durP1;ratioP1;P1;durP2;ratioP2;P2;SDS_P1;SDS_P2;PMS_P1;PMS_P2;Temp;Humidity;BMP_temperature;BMP_pressure;BME280_temperature;BME280_humidity;BME280_pressure;Samples;Min_cycle;Max_cycle;Signal;HPM_P1;HPM_P2
2022/07/06 00:00:57;;;;;;;6.28;5.67;;;;;;;24.67;56.98;99558.67;1710293;83;22289;-72
2022/07/06 00:03:23;;;;;;;6.95;6.10;;;;;;;24.63;57.10;99558.34;1713568;82;20999;-70
2022/07/06 00:05:50;;;;;;;11.20;6.20;;;;;;;24.60;56.98;99554.35;1683457;84;21077;-71
2022/07/06 00:08:17;;;;;;;7.03;5.85;;;;;;;24.58;57.09;99558.58;1710221;82;21826;-71
2022/07/06 00:10:43;;;;;;;8.65;6.05;;;;;;;24.55;57.12;99553.78;1697380;84;21092;-72
2022/07/06 00:13:10;;;;;;;16.50;5.58;;;;;;;24.53;57.10;99555.49;1718834;83;21091;-71
2022/07/06 00:15:38;;;;;;;6.85;5.83;;;;;;;24.51;56.91;99549.52;1697174;84;21073;-69
2022/07/06 00:18:05;;;;;;;6.33;5.17;;;;;;;24.51;56.72;99554.25;1710116;83;21090;-71
2022/07/06 00:20:34;;;;;;;14.50;5.80;;;;;;;24.53;56.13;99551.36;1695261;84;21107;-73
2022/07/06 00:23:00;;;;;;;10.58;5.80;;;;;;;24.56;56.14;99554.78;1702726;82;20972;-71
2022/07/06 00:25:27;;;;;;;5.25;4.75;;;;;;;24.54;56.38;99549.42;1686913;84;21057;-71
2022/07/06 00:27:53;;;;;;;7.08;5.70;;;;;;;24.55;56.43;99544.16;1686497;85;21582;-71
2022/07/06 00:30:20;;;;;;;8.15;6.08;;;;;;;24.55;56.41;99545.53;1686565;85;21092;-72
2022/07/06 00:32:48;;;;;;;6.25;5.65;;;;;;;24.56;56.41;99539.66;1687226;84;21107;-71
2022/07/06 00:35:15;;;;;;;7.30;5.12;;;;;;;24.55;56.29;99543.58;1702659;83;20968;-72
2022/07/06 00:37:42;;;;;;;7.83;6.10;;;;;;;24.54;56.27;99543.35;1674297;85;20974;-69
2022/07/06 00:40:10;;;;;;;8.88;5.00;;;;;;;24.54;56.25;99546.09;1687517;84;21076;-69
2022/07/06 00:42:46;;;;;;;7.97;6.03;;;;;;;24.57;56.28;99551.47;1656452;85;21010;-72
2022/07/06 00:45:14;;;;;;;10.95;7.53;;;;;;;24.59;56.27;99554.69;1686555;84;22172;-71
2022/07/06 00:47:42;;;;;;;9.10;6.78;;;;;;;24.61;56.18;99553.75;1686742;84;20985;-72
2022/07/06 00:50:14;;;;;;;6.50;5.90;;;;;;;24.55;56.64;99553.21;1703492;84;21063;-72
2022/07/06 00:52:47;;;;;;;7.97;6.15;;;;;;;24.48;57.22;99553.55;1703400;82;21039;-72
2022/07/06 00:55:16;;;;;;;;;;;;;;;24.43;57.68;99551.03;1690364;84;21010;-73
2022/07/06 00:57:46;;;;;;;10.38;6.42;;;;;;;24.36;58.00;99548.88;1687904;84;21241;-75
2022/07/06 01:00:16;;;;;;;7.75;6.17;;;;;;;24.27;58.51;99546.22;1702602;83;21644;-73
2022/07/06 01:02:45;;;;;;;8.33;6.47;;;;;;;24.19;58.90;99540.84;1696482;83;20956;-71
2022/07/06 01:05:13;;;;;;;12.15;6.60;;;;;;;24.14;59.21;99539.67;1672446;85;21089;-70
2022/07/06 01:07:42;;;;;;;7.92;6.33;;;;;;;24.08;59.49;99543.78;1703381;82;21005;-70
2022/07/06 01:10:10;;;;;;;6.75;6.10;;;;;;;24.05;59.78;99551.34;1683912;85;21179;-70
2022/07/06 01:12:40;;;;;;;8.83;6.25;;;;;;;23.99;59.65;99541.15;1686842;85;21076;-69
2022/07/06 01:15:16;;;;;;;6.80;6.12;;;;;;;23.98;59.83;99547.01;1678879;84;20991;-71
2022/07/06 01:17:44;;;;;;;7.65;6.95;;;;;;;23.96;60.19;99545.16;1705350;82;21039;-71
2022/07/06 01:20:18;;;;;;;7.60;6.87;;;;;;;23.87;60.53;99548.02;1704042;82;21081;-71
2022/07/06 01:22:46;;;;;;;11.40;5.92;;;;;;;23.81;60.88;99542.51;1696185;84;21041;-70
2022/07/06 01:25:13;;;;;;;13.72;6.78;;;;;;;23.78;61.15;99547.32;1694437;83;21048;-73
2022/07/06 01:27:41;;;;;;;8.30;6.92;;;;;;;23.72;61.45;99545.36;1696063;84;20997;-71
2022/07/06 01:30:13;;;;;;;7.60;6.65;;;;;;;23.65;61.68;99543.73;1695449;84;21033;-73
2022/07/06 01:32:42;;;;;;;8.67;6.77;;;;;;;23.62;62.00;99544.42;1700095;84;21073;-73
2022/07/06 01:35:12;;;;;;;7.97;7.28;;;;;;;23.56;62.14;99536.16;1714816;82;22003;-71
2022/07/06 01:37:41;;;;;;;9.18;6.08;;;;;;;23.56;62.22;99544.40;1681295;84;21038;-77
2022/07/06 01:40:11;;;;;;;11.40;7.22;;;;;;;23.53;62.31;99545.66;1700179;84;21033;-70
2022/07/06 01:42:39;;;;;;;6.47;5.87;;;;;;;23.49;62.50;99541.98;1713562;83;21107;-70
2022/07/06 01:45:07;;;;;;;7.72;6.92;;;;;;;23.46;62.59;99549.75;1716375;82;21012;-71
2022/07/06 01:47:38;;;;;;;7.62;6.87;;;;;;;23.46;62.68;99550.31;1694433;83;20974;-75
2022/07/06 01:50:07;;;;;;;7.97;6.30;;;;;;;23.42;62.80;99548.80;1694080;83;20984;-77
2022/07/06 01:52:36;;;;;;;11.35;6.33;;;;;;;23.40;62.80;99549.69;1694326;83;21008;-74
2022/07/06 01:55:03;;;;;;;7.40;6.47;;;;;;;23.39;62.97;99547.30;1709615;83;21551;-75
2022/07/06 01:57:33;;;;;;;8.90;6.20;;;;;;;23.37;63.10;99549.00;1659221;84;20997;-77
2022/07/06 02:00:00;;;;;;;7.50;6.80;;;;;;;23.33;63.23;99547.27;1705284;84;21284;-77
2022/07/06 02:02:28;;;;;;;7.50;6.22;;;;;;;23.33;63.34;99544.53;1705230;84;22157;-77
2022/07/06 02:04:55;;;;;;;9.30;7.40;;;;;;;23.33;63.36;99550.02;1705061;84;21139;-75
2022/07/06 02:07:22;;;;;;;12.03;6.97;;;;;;;23.30;63.41;99549.33;1691583;83;21061;-75
2022/07/06 02:09:49;;;;;;;7.25;5.97;;;;;;;23.29;63.54;99544.98;1685396;84;21012;-77
2022/07/06 02:12:16;;;;;;;6.35;5.75;;;;;;;23.29;63.60;99544.41;1685096;84;21262;-76
2022/07/06 02:14:43;;;;;;;9.35;6.97;;;;;;;23.29;63.68;99549.91;1692940;83;21366;-75
2022/07/06 02:17:09;;;;;;;8.75;7.50;;;;;;;23.27;63.78;99548.61;1705155;84;21053;-77
2022/07/06 02:19:36;;;;;;;8.30;6.10;;;;;;;23.23;64.00;99545.75;1710178;83;21093;-76
2022/07/06 02:22:03;;;;;;;9.45;7.62;;;;;;;23.17;64.20;99544.34;1697873;83;21023;-77
2022/07/06 02:24:32;;;;;;;10.95;6.97;;;;;;;23.14;64.33;99547.78;1675586;85;21107;-76
2022/07/06 02:27:00;;;;;;;7.95;7.15;;;;;;;23.11;64.53;99549.03;1674618;85;21135;-76
2022/07/06 02:29:27;;;;;;;9.13;7.03;;;;;;;23.09;64.65;99550.72;1688287;84;20946;-76
2022/07/06 02:31:56;;;;;;;11.88;8.40;;;;;;;23.08;64.75;99551.86;1691676;83;21012;-77
2022/07/06 02:34:22;;;;;;;8.00;7.30;;;;;;;23.07;64.78;99553.59;1687453;83;20966;-76
2022/07/06 02:36:51;;;;;;;7.85;7.08;;;;;;;23.08;64.83;99543.63;1686507;84;21264;-76
2022/07/06 02:39:20;;;;;;;8.78;6.90;;;;;;;23.11;64.87;99535.31;1669067;85;20958;-76
2022/07/06 02:41:47;;;;;;;13.50;8.23;;;;;;;23.12;64.91;99536.92;1679263;84;21056;-76
2022/07/06 02:44:14;;;;;;;10.65;7.35;;;;;;;23.13;64.89;99537.13;1680551;83;21033;-78
2022/07/06 02:46:44;;;;;;;8.03;7.12;;;;;;;23.14;64.85;99525.02;1688594;85;21057;-77
2022/07/06 02:49:11;;;;;;;7.75;6.80;;;;;;;23.17;64.79;99540.23;1681587;83;21141;-76
2022/07/06 02:51:38;;;;;;;7.30;5.90;;;;;;;23.23;64.76;99535.34;1633236;87;21068;-76
2022/07/06 02:54:05;;;;;;;7.22;6.55;;;;;;;23.26;64.74;99531.34;1660428;85;21042;-76
2022/07/06 02:56:34;;;;;;;13.83;7.95;;;;;;;23.27;64.63;99537.08;1665188;84;21012;-75
2022/07/06 02:59:01;;;;;;;7.97;7.05;;;;;;;23.28;64.58;99532.39;1638560;86;21060;-75
2022/07/06 03:01:29;;;;;;;8.63;7.83;;;;;;;23.28;64.53;99539.25;1688480;85;21217;-75
2022/07/06 03:03:57;;;;;;;8.90;7.17;;;;;;;23.30;64.49;99537.78;1660040;85;20993;-75
2022/07/06 03:06:24;;;;;;;8.38;7.37;;;;;;;23.30;64.57;99534.23;1660054;86;21597;-75
2022/07/06 03:08:54;;;;;;;12.15;7.20;;;;;;;23.31;64.61;99535.25;1659644;86;21079;-75
2022/07/06 03:11:21;;;;;;;10.28;6.90;;;;;;;23.33;64.65;99535.73;1687999;84;21041;-75
2022/07/06 03:13:48;;;;;;;10.58;6.97;;;;;;;23.33;64.79;99532.98;1660135;86;21303;-77
2022/07/06 03:16:15;;;;;;;11.83;8.35;;;;;;;23.31;64.97;99528.98;1687964;85;20965;-77
2022/07/06 03:18:42;;;;;;;9.68;7.58;;;;;;;23.31;65.15;99528.98;1689067;83;20981;-76
2022/07/06 03:21:10;;;;;;;11.53;7.78;;;;;;;23.29;65.22;99528.52;1688071;84;21009;-77
2022/07/06 03:23:37;;;;;;;16.62;8.85;;;;;;;23.29;65.30;99532.62;1669088;84;21029;-76
2022/07/06 03:26:05;;;;;;;8.80;8.00;;;;;;;23.27;65.29;99537.08;1695654;84;21975;-76
2022/07/06 03:28:33;;;;;;;7.92;7.22;;;;;;;23.28;65.22;99540.05;1705489;84;21037;-76
2022/07/06 03:31:00;;;;;;;13.80;8.13;;;;;;;23.32;65.33;99538.80;1697633;84;21000;-76
2022/07/06 03:33:28;;;;;;;10.25;7.65;;;;;;;23.33;65.40;99541.22;1699243;83;20905;-76
2022/07/06 03:35:55;;;;;;;9.10;7.25;;;;;;;23.34;65.54;99537.91;1697056;84;21510;-77
2022/07/06 03:38:22;;;;;;;12.58;8.23;;;;;;;23.32;65.69;99538.23;1699127;84;21110;-77
2022/07/06 03:40:48;;;;;;;14.93;8.25;;;;;;;23.33;65.58;99535.73;1669241;85;20976;-78
2022/07/06 03:43:15;;;;;;;8.50;7.20;;;;;;;23.39;65.58;99538.50;1698695;83;21000;-77
2022/07/06 03:45:42;;;;;;;11.93;7.20;;;;;;;23.42;65.66;99541.13;1697794;84;21542;-76
2022/07/06 03:48:09;;;;;;;8.05;7.25;;;;;;;23.40;65.65;99538.71;1683724;84;21108;-77
2022/07/06 03:50:38;;;;;;;9.78;8.13;;;;;;;23.35;65.66;99541.70;1699896;83;21176;-77
2022/07/06 03:53:04;;;;;;;14.00;8.05;;;;;;;23.36;65.66;99543.28;1697595;84;21221;-78
2022/07/06 03:55:32;;;;;;;15.75;8.53;;;;;;;23.35;65.77;99546.38;1698741;83;20944;-77
2022/07/06 03:58:02;;;;;;;9.13;8.15;;;;;;;23.33;65.92;99542.59;1683112;84;21008;-77
2022/07/06 04:00:29;;;;;;;11.70;8.93;;;;;;;23.35;65.92;99540.89;1698405;84;21098;-78
2022/07/06 04:02:58;;;;;;;10.05;9.05;;;;;;;23.38;65.92;99544.32;1696674;84;21102;-77
2022/07/06 04:05:27;;;;;;;14.53;8.35;;;;;;;23.42;65.78;99532.89;1695402;84;21640;-77
2022/07/06 04:07:54;;;;;;;14.53;8.43;;;;;;;23.50;65.73;99533.98;1696592;84;20948;-77
2022/07/06 04:10:22;;;;;;;9.95;7.70;;;;;;;23.55;65.60;99536.52;1685418;83;21008;-78
2022/07/06 04:12:49;;;;;;;9.33;7.75;;;;;;;23.59;65.25;99532.75;1668695;85;21031;-78
2022/07/06 04:15:18;;;;;;;8.83;7.85;;;;;;;23.60;65.09;99521.98;1681637;84;20961;-79
2022/07/06 04:17:55;;;;;;;8.75;7.80;;;;;;;23.64;64.72;99527.61;1695386;84;20990;-77
2022/07/06 04:20:26;;;;;;;13.43;8.68;;;;;;;23.69;64.74;99528.77;1699911;84;21069;-77
2022/07/06 04:22:54;;;;;;;12.55;8.58;;;;;;;23.73;64.73;99527.75;1689877;83;21265;-78
2022/07/06 04:25:21;;;;;;;11.05;7.22;;;;;;;23.80;64.52;99523.84;1709310;83;21549;-76
2022/07/06 04:27:48;;;;;;;17.62;9.20;;;;;;;23.89;64.43;99524.55;1695204;84;21523;-76
2022/07/06 04:30:15;;;;;;;15.83;8.43;;;;;;;23.96;64.31;99519.06;1709437;83;20937;-75
2022/07/06 04:32:42;;;;;;;10.28;7.37;;;;;;;24.01;64.21;99518.84;1683025;84;21069;-76
2022/07/06 04:35:11;;;;;;;10.75;6.87;;;;;;;24.08;63.84;99517.11;1706446;84;21021;-76
2022/07/06 04:37:41;;;;;;;7.92;7.15;;;;;;;24.16;62.98;99518.16;1678688;85;21130;-77
2022/07/06 04:40:10;;;;;;;12.88;7.58;;;;;;;24.23;62.49;99515.64;1694156;84;21550;-78
2022/07/06 04:42:37;;;;;;;13.35;7.42;;;;;;;24.30;62.20;99514.51;1710266;83;21073;-77
2022/07/06 04:45:06;;;;;;;11.70;6.80;;;;;;;24.39;62.02;99511.06;1710339;83;21015;-78
2022/07/06 04:47:34;;;;;;;8.93;7.47;;;;;;;24.44;61.65;99505.89;1670882;82;21030;-78
2022/07/06 04:50:02;;;;;;;8.40;7.53;;;;;;;24.52;61.38;99505.76;1696788;84;21057;-77
2022/07/06 04:52:29;;;;;;;8.85;8.05;;;;;;;24.59;61.16;99497.73;1706459;84;21165;-77
2022/07/06 04:54:56;;;;;;;11.08;7.55;;;;;;;24.67;60.99;99501.48;1706286;84;20917;-77
2022/07/06 04:57:25;;;;;;;9.35;6.65;;;;;;;24.75;60.57;99506.84;1706786;82;21027;-78
2022/07/06 04:59:53;;;;;;;7.47;6.87;;;;;;;24.85;59.68;99503.38;1681820;85;21415;-78
2022/07/06 05:02:21;;;;;;;9.30;7.05;;;;;;;24.91;58.93;99500.64;1669133;85;21065;-76
2022/07/06 05:04:49;;;;;;;7.08;6.37;;;;;;;24.98;58.93;99500.86;1710828;83;21533;-77
2022/07/06 05:07:16;;;;;;;7.05;6.45;;;;;;;25.03;58.57;99494.53;1713091;82;20988;-76
2022/07/06 05:09:43;;;;;;;8.73;7.92;;;;;;;25.11;58.23;99496.32;1696758;84;21100;-78
2022/07/06 05:12:10;;;;;;;7.12;6.47;;;;;;;25.18;58.10;99498.45;1710483;83;21528;-75
2022/07/06 05:14:38;;;;;;;8.33;6.20;;;;;;;25.25;58.20;99500.61;1689184;84;21067;-76
2022/07/06 05:17:08;;;;;;;7.25;6.60;;;;;;;25.29;58.32;99500.13;1727810;83;21152;-76
2022/07/06 05:19:35;;;;;;;10.95;6.80;;;;;;;25.34;58.00;99497.11;1711477;83;20944;-78
2022/07/06 05:22:03;;;;;;;10.65;7.50;;;;;;;25.40;57.69;99495.14;1709957;83;22197;-76
2022/07/06 05:24:32;;;;;;;8.25;7.08;;;;;;;25.46;57.66;99489.60;1696634;84;21041;-75
2022/07/06 05:27:00;;;;;;;11.45;6.62;;;;;;;25.53;57.57;99486.21;1710942;83;20955;-73
2022/07/06 05:29:29;;;;;;;10.13;6.97;;;;;;;25.59;57.16;99485.64;1710286;82;21617;-75
2022/07/06 05:31:56;;;;;;;6.33;5.83;;;;;;;25.67;56.58;99476.97;1710477;83;20968;-73
2022/07/06 05:34:23;;;;;;;7.20;6.20;;;;;;;25.72;56.04;99482.20;1699265;84;21073;-78
2022/07/06 05:36:49;;;;;;;11.93;5.92;;;;;;;25.80;55.91;99481.83;1726697;83;21083;-78
2022/07/06 05:39:21;;;;;;;7.80;6.42;;;;;;;25.87;55.71;99478.66;1696703;84;21077;-76
2022/07/06 05:41:48;;;;;;;7.03;6.42;;;;;;;25.94;55.53;99474.70;1710527;83;22097;-75
2022/07/06 05:44:15;;;;;;;7.40;6.78;;;;;;;26.00;55.45;99473.25;1710425;83;20972;-74
2022/07/06 05:46:42;;;;;;;11.22;6.87;;;;;;;26.08;55.25;99467.92;1710521;83;20980;-74
2022/07/06 05:51:54;;;;;;;10.78;6.05;;;;;;;26.22;54.34;99466.33;1697418;84;21096;-74
2022/07/06 05:54:23;;;;;;;8.48;7.60;;;;;;;26.32;53.71;99466.34;1709156;83;21368;-75
2022/07/06 05:56:51;;;;;;;8.88;5.78;;;;;;;26.39;53.51;99460.39;1727880;82;21012;-75
2022/07/06 05:59:19;;;;;;;20.75;6.10;;;;;;;26.48;53.36;99458.80;1687709;83;21048;-74
2022/07/06 06:01:45;;;;;;;6.87;6.28;;;;;;;26.56;53.23;99461.16;1710466;83;21331;-75
2022/07/06 06:04:14;;;;;;;7.03;6.33;;;;;;;26.62;53.24;99460.48;1709903;82;21039;-75
2022/07/06 06:06:41;;;;;;;8.30;5.58;;;;;;;26.70;52.82;99453.17;1696498;84;21545;-75
2022/07/06 06:09:08;;;;;;;8.00;5.97;;;;;;;26.78;52.43;99450.77;1705459;84;21534;-78
2022/07/06 06:11:36;;;;;;;9.10;5.83;;;;;;;26.87;52.23;99448.03;1710717;83;20996;-81
2022/07/06 06:14:04;;;;;;;10.08;5.92;;;;;;;26.96;51.94;99438.14;1693044;83;21282;-78
2022/07/06 06:16:31;;;;;;;8.45;5.67;;;;;;;27.05;51.12;99433.79;1710408;83;21113;-77
2022/07/06 06:18:58;;;;;;;7.30;5.55;;;;;;;27.13;51.15;99435.52;1694166;83;21799;-78
2022/07/06 06:21:26;;;;;;;5.20;4.70;;;;;;;27.20;50.17;99430.10;1696351;84;21531;-79
2022/07/06 06:23:53;;;;;;;8.90;4.92;;;;;;;27.27;49.65;99426.10;1691343;84;21025;-81
2022/07/06 06:26:20;;;;;;;9.28;5.08;;;;;;;27.34;49.89;99428.39;1706979;82;20977;-80
2022/07/06 06:28:47;;;;;;;9.48;4.55;;;;;;;27.41;47.76;99426.93;1686320;84;21080;-83
2022/07/06 06:31:14;;;;;;;10.93;5.40;;;;;;;27.49;47.25;99428.09;1672481;85;21081;-81
2022/07/06 06:33:41;;;;;;;5.80;5.30;;;;;;;27.60;47.59;99424.13;1686752;84;21005;-80
2022/07/06 06:36:08;;;;;;;9.35;5.05;;;;;;;27.69;47.88;99428.23;1704214;82;21103;-81
2022/07/06 06:38:35;;;;;;;8.90;4.40;;;;;;;27.80;47.51;99430.37;1688097;85;21073;-77
2022/07/06 06:41:02;;;;;;;5.62;5.05;;;;;;;27.88;47.09;99430.11;1687993;84;21033;-76
2022/07/06 06:43:29;;;;;;;10.38;5.33;;;;;;;27.96;46.75;99423.51;1688346;84;21561;-81
2022/07/06 06:46:03;;;;;;;4.87;4.45;;;;;;;28.06;46.70;99426.22;1717937;83;21485;-81
2022/07/06 06:48:31;;;;;;;8.50;5.95;;;;;;;28.15;46.47;99417.89;1718409;82;21004;-81
2022/07/06 06:50:58;;;;;;;13.30;5.30;;;;;;;28.23;46.33;99424.92;1710025;83;21549;-80
2022/07/06 06:53:25;;;;;;;6.17;4.75;;;;;;;28.29;45.17;99421.47;1687787;84;21020;-79
2022/07/06 06:55:51;;;;;;;4.83;4.40;;;;;;;28.37;44.99;99420.38;1718703;83;21536;-78
2022/07/06 06:58:21;;;;;;;4.97;4.50;;;;;;;28.45;44.36;99415.14;1718879;82;21552;-77
2022/07/06 07:00:48;;;;;;;11.15;4.83;;;;;;;28.52;43.97;99423.55;1718455;83;20977;-78
2022/07/06 07:03:17;;;;;;;6.53;5.22;;;;;;;28.59;42.99;99411.16;1705482;82;21019;-78
2022/07/06 07:05:43;;;;;;;5.67;4.62;;;;;;;28.65;42.77;99413.02;1688958;84;21084;-78
2022/07/06 07:08:10;;;;;;;4.95;4.50;;;;;;;28.73;42.77;99407.03;1703692;83;21611;-78
2022/07/06 07:10:37;;;;;;;5.60;4.60;;;;;;;28.81;41.67;99418.38;1702130;83;20949;-75
2022/07/06 07:13:03;;;;;;;5.65;5.15;;;;;;;28.86;41.84;99411.12;1716558;82;21334;-77
2022/07/06 07:15:30;;;;;;;8.33;4.92;;;;;;;28.90;41.86;99413.34;1703490;84;21016;-78
2022/07/06 07:17:57;;;;;;;4.75;4.30;;;;;;;28.94;41.81;99404.47;1689494;83;21083;-78
2022/07/06 07:20:25;;;;;;;4.95;4.60;;;;;;;28.98;41.61;99403.33;1676631;85;21094;-79
2022/07/06 07:22:53;;;;;;;7.30;5.25;;;;;;;29.06;41.80;99407.58;1703574;84;21190;-78
2022/07/06 07:25:20;;;;;;;9.43;5.17;;;;;;;29.12;41.74;99406.03;1687886;83;21053;-75
2022/07/06 07:27:47;;;;;;;5.08;4.53;;;;;;;29.19;41.81;99401.38;1703548;82;21141;-78
2022/07/06 07:30:16;;;;;;;6.40;4.58;;;;;;;29.26;41.35;99401.42;1675165;84;21088;-79
2022/07/06 07:32:44;;;;;;;7.35;5.37;;;;;;;29.36;41.16;99402.73;1703818;82;21160;-74
2022/07/06 07:35:11;;;;;;;5.67;4.62;;;;;;;29.41;41.01;99396.25;1689016;84;21010;-75
2022/07/06 07:37:39;;;;;;;5.33;4.83;;;;;;;29.49;40.97;99396.33;1701300;84;21132;-76
2022/07/06 07:40:07;;;;;;;15.03;5.17;;;;;;;29.57;40.93;99391.04;1674759;84;21474;-75
2022/07/06 07:42:34;;;;;;;7.40;4.80;;;;;;;29.61;40.34;99394.05;1688099;84;21583;-79
2022/07/06 07:45:01;;;;;;;5.40;4.55;;;;;;;29.67;40.12;99395.88;1676287;84;24696;-79
2022/07/06 07:47:28;;;;;;;5.45;4.83;;;;;;;29.67;40.33;99388.36;1702864;84;21095;-81
2022/07/06 07:49:58;;;;;;;8.63;5.03;;;;;;;29.72;40.02;99388.59;1678917;85;21073;-82
2022/07/06 07:52:26;;;;;;;8.88;5.78;;;;;;;29.80;40.00;99389.63;1688518;85;21080;-80
2022/07/06 07:54:53;;;;;;;5.95;5.03;;;;;;;29.88;39.99;99383.53;1706066;83;21648;-85
2022/07/06 07:57:22;;;;;;;7.87;5.05;;;;;;;29.95;39.22;99387.78;1689308;84;21151;-78
2022/07/06 07:59:48;;;;;;;9.93;5.17;;;;;;;30.03;39.18;99394.16;1706439;83;20981;-81
2022/07/06 08:02:16;;;;;;;7.05;5.35;;;;;;;30.09;38.84;99382.91;1709742;82;21104;-80
2022/07/06 08:04:46;;;;;;;15.15;11.50;;;;;;;30.15;39.01;99388.30;1700547;83;21031;-83
2022/07/06 08:07:17;;;;;;;8.50;5.03;;;;;;;30.22;38.84;99390.50;1674955;85;21033;-79
2022/07/06 08:09:44;;;;;;;7.75;4.50;;;;;;;30.27;38.40;99397.06;1686360;84;21866;-82
2022/07/06 08:12:12;;;;;;;6.45;4.33;;;;;;;30.28;38.48;99391.73;1655097;84;20986;-82
2022/07/06 08:14:55;;;;;;;8.83;4.60;;;;;;;30.33;38.48;99387.78;1718223;82;21144;-85
2022/07/06 08:17:24;;;;;;;5.17;4.58;;;;;;;30.39;38.13;99385.44;1718386;82;21572;-81
2022/07/06 08:19:52;;;;;;;6.65;4.50;;;;;;;30.47;37.94;99396.80;1718678;83;21640;-82
2022/07/06 08:22:19;;;;;;;4.50;4.10;;;;;;;30.53;37.96;99391.08;1695140;84;21244;-82
2022/07/06 08:24:47;;;;;;;6.33;4.60;;;;;;;30.59;37.20;99381.19;1659691;83;21016;-80
2022/07/06 08:27:14;;;;;;;6.65;5.17;;;;;;;30.65;37.31;99390.12;1660813;86;21048;-81
2022/07/06 08:29:42;;;;;;;4.67;4.33;;;;;;;30.72;37.14;99391.55;1662045;86;21087;-80
2022/07/06 08:32:09;;;;;;;4.47;4.03;;;;;;;30.80;37.20;99386.80;1677205;84;21034;-80
2022/07/06 08:34:36;;;;;;;13.22;4.45;;;;;;;30.89;37.21;99386.44;1666884;84;21191;-80
2022/07/06 08:37:04;;;;;;;7.03;5.37;;;;;;;30.95;37.20;99391.20;1690380;84;21042;-82
2022/07/06 08:39:31;;;;;;;6.08;4.65;;;;;;;31.04;37.41;99391.64;1688961;84;21067;-81
2022/07/06 08:41:59;;;;;;;6.28;5.58;;;;;;;31.15;36.85;99392.47;1688619;84;21042;-81
2022/07/06 08:44:27;;;;;;;7.72;5.55;;;;;;;31.23;35.98;99389.67;1691869;83;21045;-80
2022/07/06 08:46:58;;;;;;;6.30;5.00;;;;;;;31.27;35.52;99391.27;1662433;85;21139;-80
2022/07/06 08:49:25;;;;;;;6.42;5.22;;;;;;;31.34;35.71;99380.17;1690189;83;21065;-78
2022/07/06 08:51:52;;;;;;;4.80;4.40;;;;;;;31.41;35.52;99378.00;1689126;83;20993;-78
2022/07/06 08:54:21;;;;;;;6.62;4.30;;;;;;;31.47;35.55;99373.61;1688399;84;21088;-80
2022/07/06 08:56:47;;;;;;;5.95;5.33;;;;;;;31.56;36.29;99374.02;1687183;85;21090;-78
2022/07/06 08:59:15;;;;;;;5.42;4.62;;;;;;;31.67;36.25;99372.63;1687248;84;21095;-78
2022/07/06 09:01:42;;;;;;;6.47;5.75;;;;;;;31.73;35.88;99372.44;1689439;85;20988;-76
2022/07/06 09:04:09;;;;;;;4.75;4.05;;;;;;;31.76;36.02;99373.02;1689657;84;21594;-78
2022/07/06 09:06:36;;;;;;;6.22;5.22;;;;;;;31.81;35.61;99369.23;1660534;86;21081;-78
2022/07/06 09:09:05;;;;;;;13.88;6.20;;;;;;;31.87;34.05;99373.80;1681880;84;21013;-81
2022/07/06 09:11:32;;;;;;;11.45;6.60;;;;;;;31.86;34.36;99356.31;1689830;84;21165;-81
2022/07/06 09:14:00;;;;;;;6.72;5.70;;;;;;;31.91;33.87;99355.11;1691839;83;21045;-80
2022/07/06 09:16:28;;;;;;;6.33;5.80;;;;;;;31.96;33.49;99348.54;1690404;83;20998;-81
2022/07/06 09:18:55;;;;;;;8.45;6.47;;;;;;;32.01;33.52;99350.12;1667215;85;21115;-75
2022/07/06 09:21:27;;;;;;;7.17;5.85;;;;;;;32.08;33.33;99359.84;1659256;83;21068;-76
2022/07/06 09:23:58;;;;;;;5.40;4.83;;;;;;;32.14;32.56;99367.98;1675221;84;21327;-74
2022/07/06 09:26:27;;;;;;;9.55;6.53;;;;;;;32.12;32.69;99350.92;1705855;83;21544;-76
2022/07/06 09:28:56;;;;;;;7.30;6.62;;;;;;;32.10;32.36;99346.91;1706407;83;21633;-79
2022/07/06 09:31:23;;;;;;;9.70;6.83;;;;;;;32.09;32.29;99348.89;1709337;83;21114;-76
2022/07/06 09:34:05;;;;;;;6.33;5.87;;;;;;;32.12;32.81;99345.35;1709813;82;21136;-78
2022/07/06 09:36:48;;;;;;;7.60;5.85;;;;;;;32.17;32.69;99344.14;1691969;84;21812;-78
2022/07/06 09:39:26;;;;;;;7.75;5.37;;;;;;;32.26;32.69;99338.34;1681977;84;21007;-79
2022/07/06 09:41:57;;;;;;;5.90;5.37;;;;;;;32.35;32.68;99329.55;1669213;86;20961;-78
2022/07/06 09:44:31;;;;;;;6.67;6.08;;;;;;;32.42;32.45;99328.13;1727121;83;21051;-78
2022/07/06 09:47:00;;;;;;;7.37;6.45;;;;;;;32.45;32.14;99329.50;1695777;83;21061;-78
2022/07/06 09:49:28;;;;;;;8.78;6.67;;;;;;;32.53;31.64;99320.50;1710663;83;21090;-81
2022/07/06 09:51:59;;;;;;;6.40;5.80;;;;;;;32.61;31.41;99322.06;1679246;85;21064;-80
2022/07/06 09:54:26;;;;;;;7.90;5.40;;;;;;;32.68;31.51;99326.81;1696311;84;21423;-77
2022/07/06 09:56:57;;;;;;;6.78;6.20;;;;;;;32.72;31.27;99330.36;1701440;84;21048;-79
2022/07/06 09:59:35;;;;;;;5.97;4.92;;;;;;;32.79;31.49;99328.94;1727982;82;22220;-78
2022/07/06 10:02:08;;;;;;;7.30;6.70;;;;;;;32.79;31.17;99321.38;1707339;83;21067;-83
2022/07/06 10:04:36;;;;;;;6.62;5.70;;;;;;;32.75;31.50;99312.86;1697756;83;20994;-75
2022/07/06 10:07:05;;;;;;;6.95;6.33;;;;;;;32.68;31.65;99319.25;1714764;82;20932;-78
2022/07/06 10:09:33;;;;;;;6.67;5.40;;;;;;;32.64;31.39;99315.70;1708894;83;21087;-79
2022/07/06 10:12:02;;;;;;;6.33;5.67;;;;;;;32.64;31.57;99311.52;1692353;83;21028;-79
2022/07/06 10:14:32;;;;;;;9.20;5.90;;;;;;;32.71;31.68;99304.50;1704142;83;22096;-79
2022/07/06 10:17:02;;;;;;;7.10;6.45;;;;;;;32.82;32.09;99300.25;1697336;84;21565;-76
2022/07/06 10:19:30;;;;;;;5.60;4.90;;;;;;;32.96;31.72;99316.88;1710392;83;21599;-77
2022/07/06 10:22:02;;;;;;;7.40;5.45;;;;;;;33.06;31.18;99314.61;1709780;82;21044;-75
2022/07/06 10:24:30;;;;;;;9.80;6.97;;;;;;;33.11;31.06;99309.19;1686565;84;21108;-79
2022/07/06 10:26:57;;;;;;;9.98;7.10;;;;;;;33.12;31.18;99304.61;1688328;85;21971;-77
2022/07/06 10:29:24;;;;;;;6.85;6.15;;;;;;;33.17;30.82;99297.23;1651190;85;21038;-78
2022/07/06 10:31:55;;;;;;;9.75;6.10;;;;;;;33.23;30.43;99307.34;1686728;84;20965;-85
2022/07/06 10:34:23;;;;;;;5.35;4.85;;;;;;;33.19;30.57;99298.22;1681862;84;38929;-79
2022/07/06 10:36:52;;;;;;;11.97;6.17;;;;;;;33.22;30.54;99298.19;1659377;85;21597;-76
2022/07/06 10:42:49;;;;;;;6.08;5.47;;;;;;;33.27;31.23;99291.38;1667847;84;21542;-86
2022/07/06 10:45:36;;;;;;;6.33;5.65;;;;;;;33.46;31.19;99289.40;1692374;82;21000;-85
2022/07/06 10:48:20;;;;;;;12.58;6.87;;;;;;;33.62;30.75;99283.27;1689587;84;21075;-84
2022/07/06 10:50:52;;;;;;;10.80;6.62;;;;;;;33.70;31.19;99294.56;1686517;84;21005;-81
2022/07/06 10:53:27;;;;;;;6.70;5.95;;;;;;;33.79;30.35;99275.92;1687507;84;21688;-82
2022/07/06 10:55:55;;;;;;;8.53;6.03;;;;;;;33.87;30.19;99285.79;1670105;84;21040;-77
2022/07/06 10:58:49;;;;;;;6.08;5.62;;;;;;;33.94;29.82;99290.70;1679898;83;21029;-78
2022/07/06 11:01:16;;;;;;;8.33;5.83;;;;;;;33.96;28.28;99278.50;1680255;83;20952;-78
2022/07/06 11:03:59;;;;;;;7.97;5.78;;;;;;;33.93;28.86;99273.77;1652390;86;21060;-78
2022/07/06 11:06:27;;;;;;;5.25;4.72;;;;;;;33.95;28.98;99265.78;1687696;84;21848;-77
2022/07/06 11:08:59;;;;;;;6.33;5.53;;;;;;;34.00;29.19;99259.73;1682978;84;21676;-71
2022/07/06 11:11:37;;;;;;;11.40;5.80;;;;;;;34.08;29.02;99266.00;1697897;83;21597;-73
2022/07/06 11:14:16;;;;;;;5.70;4.65;;;;;;;34.12;29.11;99237.44;1689315;83;21158;-81
2022/07/06 11:16:54;;;;;;;7.20;6.60;;;;;;;34.21;28.69;99243.32;1687238;84;21832;-82
2022/07/06 11:19:26;;;;;;;7.15;6.45;;;;;;;34.26;28.13;99237.27;1676506;83;21000;-76
2022/07/06 11:22:08;;;;;;;8.85;7.53;;;;;;;34.29;27.72;99239.84;1640953;86;21184;-86
2022/07/06 11:24:38;;;;;;;9.35;7.42;;;;;;;34.32;28.10;99232.80;1692464;84;21013;-82
2022/07/06 11:27:07;;;;;;;9.20;6.50;;;;;;;34.48;27.70;99226.59;1704521;84;21092;-80
2022/07/06 11:29:37;;;;;;;7.30;6.67;;;;;;;34.66;28.09;99224.31;1705408;84;21079;-72
2022/07/06 11:32:04;;;;;;;7.25;6.60;;;;;;;34.80;28.12;99218.52;1710497;82;22169;-75
2022/07/06 11:34:34;;;;;;;14.50;7.37;;;;;;;34.86;28.00;99220.23;1682922;84;21551;-75
2022/07/06 11:37:04;;;;;;;7.62;6.12;;;;;;;34.93;28.07;99208.30;1710442;83;21080;-76
2022/07/06 11:39:42;;;;;;;10.60;7.00;;;;;;;34.98;28.18;99216.20;1710458;82;21002;-75
2022/07/06 11:42:14;;;;;;;7.70;7.08;;;;;;;34.92;28.51;99219.30;1696817;84;21105;-71
2022/07/06 11:44:41;;;;;;;7.85;6.10;;;;;;;34.93;28.51;99210.31;1694459;84;21124;-70